Time;durP1;ratioP1;P1;durP2;ratioP2;P2;SDS_P1;SDS_P2;PMS_P1;PMS_P2;Temp;Humidity;BMP_temperature;BMP_pressure;BME280_temperature;BME280_humidity;BME280_pressure;Samples;Min_cycle;Max_cycle;Signal;HPM_P1;HPM_P2
2022/02/28 00:01:13;;;;;;;5.18;2.75;;;4.20;75.20;;;;;;2089497;28;20067;-88
2022/02/28 00:02:14;;;;;;;5.72;2.78;;;4.20;75.20;;;;;;2084079;28;20038;-88
2022/02/28 00:03:14;;;;;;;5.35;2.80;;;4.20;75.20;;;;;;2067229;28;20471;-88
2022/02/28 00:04:15;;;;;;;6.40;3.08;;;4.20;75.20;;;;;;2066087;28;20094;-88
2022/02/28 00:05:17;;;;;;;5.13;2.63;;;4.20;75.20;;;;;;2065083;28;20034;-89
2022/02/28 00:06:18;;;;;;;7.20;3.00;;;4.10;75.10;;;;;;2094669;28;20530;-88
2022/02/28 00:07:19;;;;;;;5.40;2.80;;;4.10;75.10;;;;;;2046226;28;20039;-88
2022/02/28 00:08:20;;;;;;;5.68;2.65;;;4.10;75.10;;;;;;2040731;29;20043;-87
2022/02/28 00:09:21;;;;;;;5.07;2.67;;;4.10;75.20;;;;;;2067745;28;20123;-88
2022/02/28 00:10:22;;;;;;;6.32;2.80;;;4.10;75.20;;;;;;2072997;28;20091;-88
2022/02/28 00:11:23;;;;;;;5.70;2.80;;;4.20;75.40;;;;;;2068635;28;20516;-87
2022/02/28 00:12:23;;;;;;;5.57;2.40;;;4.10;75.30;;;;;;2056657;28;20461;-88
2022/02/28 00:13:24;;;;;;;5.68;2.65;;;4.10;75.30;;;;;;2058634;28;20057;-88
2022/02/28 00:14:24;;;;;;;6.22;2.97;;;4.10;75.30;;;;;;2050076;28;20169;-88
2022/02/28 00:15:25;;;;;;;5.18;2.55;;;4.10;75.40;;;;;;2048630;29;20101;-88
2022/02/28 00:16:26;;;;;;;5.13;2.40;;;4.10;75.40;;;;;;2072971;28;20131;-88
2022/02/28 00:17:26;;;;;;;5.95;2.85;;;4.10;75.40;;;;;;2063841;28;20039;-88
2022/02/28 00:18:27;;;;;;;5.03;2.53;;;4.10;75.40;;;;;;2056628;28;20038;-88
2022/02/28 00:19:28;;;;;;;5.07;2.90;;;4.10;75.50;;;;;;2056962;28;20062;-88
2022/02/28 00:20:29;;;;;;;6.60;2.83;;;4.10;75.50;;;;;;2048604;28;20046;-87
2022/02/28 00:21:29;;;;;;;4.95;2.55;;;4.10;75.50;;;;;;2053903;28;20054;-88
2022/02/28 00:22:30;;;;;;;4.13;2.30;;;4.10;76.10;;;;;;2073483;28;20499;-88
2022/02/28 00:23:31;;;;;;;5.10;2.60;;;4.10;75.60;;;;;;2049822;28;20043;-88
2022/02/28 00:24:31;;;;;;;5.55;2.80;;;4.10;75.60;;;;;;2087484;28;20040;-87
2022/02/28 00:25:32;;;;;;;4.72;2.75;;;4.00;75.60;;;;;;2082272;28;20418;-88
2022/02/28 00:26:32;;;;;;;6.78;2.90;;;4.00;75.70;;;;;;2063925;28;20049;-88
2022/02/28 00:27:34;;;;;;;5.32;2.50;;;4.00;75.60;;;;;;2057059;28;20047;-88
2022/02/28 00:28:35;;;;;;;5.57;2.85;;;4.00;75.70;;;;;;2063206;28;20045;-88
2022/02/28 00:29:35;;;;;;;5.95;2.55;;;4.00;75.70;;;;;;2063041;28;20512;-88
2022/02/28 00:30:37;;;;;;;4.65;2.25;;;4.00;75.70;;;;;;2064494;28;20068;-88
2022/02/28 00:31:38;;;;;;;5.93;2.60;;;4.00;75.80;;;;;;2063288;28;20097;-88
2022/02/28 00:32:39;;;;;;;4.75;2.38;;;4.00;75.80;;;;;;2067807;28;20508;-88
2022/02/28 00:33:40;;;;;;;5.72;2.53;;;4.00;75.80;;;;;;2055595;28;20035;-88
2022/02/28 00:34:40;;;;;;;6.43;3.10;;;4.00;75.80;;;;;;2055639;28;20047;-88
2022/02/28 00:35:42;;;;;;;5.78;2.80;;;4.00;75.90;;;;;;2090838;28;20045;-88
2022/02/28 00:36:42;;;;;;;5.65;2.75;;;4.00;75.80;;;;;;2061204;28;20041;-88
2022/02/28 00:37:43;;;;;;;5.00;2.60;;;4.00;75.80;;;;;;2064384;28;20030;-87
2022/02/28 00:38:44;;;;;;;4.30;2.35;;;4.00;75.90;;;;;;2092526;28;20509;-88
2022/02/28 00:39:45;;;;;;;6.43;2.88;;;4.00;75.80;;;;;;2081910;28;20033;-88
2022/02/28 00:40:46;;;;;;;6.00;2.70;;;4.00;75.90;;;;;;2075236;28;20049;-88
2022/02/28 00:41:46;;;;;;;5.43;2.58;;;4.00;75.90;;;;;;2048404;28;20085;-88
2022/02/28 00:42:47;;;;;;;4.07;2.30;;;4.00;75.90;;;;;;2057176;28;20042;-88
2022/02/28 00:43:48;;;;;;;4.07;2.45;;;4.00;76.00;;;;;;2056420;28;20043;-88
2022/02/28 00:44:49;;;;;;;5.25;2.53;;;4.00;76.00;;;;;;2062716;28;20076;-88
2022/02/28 00:45:50;;;;;;;4.57;2.10;;;4.00;76.00;;;;;;2056557;28;20554;-88
2022/02/28 00:46:50;;;;;;;4.95;2.30;;;4.00;76.00;;;;;;2056017;28;20038;-88
2022/02/28 00:47:51;;;;;;;5.70;2.58;;;4.00;76.00;;;;;;2053497;28;20040;-88
2022/02/28 00:48:52;;;;;;;5.03;2.53;;;4.00;76.00;;;;;;2048208;28;20465;-88
2022/02/28 00:49:52;;;;;;;4.88;2.75;;;4.00;76.10;;;;;;2064841;28;20554;-88
2022/02/28 00:50:53;;;;;;;5.82;2.63;;;4.00;76.10;;;;;;2096828;28;20035;-88
2022/02/28 00:51:54;;;;;;;4.60;2.35;;;4.00;76.10;;;;;;2074999;28;20077;-87
2022/02/28 00:52:54;;;;;;;5.70;2.50;;;3.90;76.10;;;;;;2056450;28;20035;-88
2022/02/28 00:53:55;;;;;;;5.13;2.50;;;4.00;76.10;;;;;;2048019;28;20579;-88
2022/02/28 00:54:56;;;;;;;5.18;2.42;;;3.90;76.10;;;;;;2095743;28;20049;-89
2022/02/28 00:55:56;;;;;;;4.28;2.30;;;3.90;76.10;;;;;;2097005;28;20593;-88
2022/02/28 00:56:57;;;;;;;5.13;2.55;;;3.90;76.10;;;;;;2089645;28;20036;-88
2022/02/28 00:57:58;;;;;;;4.38;2.20;;;3.90;76.10;;;;;;2097001;28;20579;-88
2022/02/28 00:58:58;;;;;;;5.05;2.60;;;4.00;76.20;;;;;;2056328;28;20039;-88
2022/02/28 00:59:59;;;;;;;4.57;2.40;;;3.90;76.10;;;;;;2060093;28;20026;-88
2022/02/28 01:01:00;;;;;;;4.35;2.35;;;3.90;76.10;;;;;;2056071;28;20066;-88
2022/02/28 01:02:01;;;;;;;6.07;3.00;;;3.90;76.10;;;;;;2084393;28;20521;-88
2022/02/28 01:03:02;;;;;;;5.30;2.58;;;3.90;76.20;;;;;;2087962;28;20578;-87
2022/02/28 01:04:04;;;;;;;5.93;2.50;;;3.90;76.10;;;;;;2089957;28;20041;-88
2022/02/28 01:05:05;;;;;;;4.82;2.50;;;3.90;76.10;;;;;;2063036;28;20518;-87
2022/02/28 01:06:06;;;;;;;5.90;2.80;;;3.90;76.10;;;;;;2064328;28;20137;-88
2022/02/28 01:07:07;;;;;;;5.65;2.72;;;3.90;76.10;;;;;;2063559;28;20038;-87
2022/02/28 01:08:08;;;;;;;5.20;2.20;;;3.90;76.10;;;;;;2062289;28;20030;-88
2022/02/28 01:09:08;;;;;;;7.20;2.70;;;3.90;76.20;;;;;;2060649;28;20485;-88
2022/02/28 01:10:13;;;;;;;4.90;2.60;;;3.90;76.20;;;;;;2049379;28;20039;-88
2022/02/28 01:11:14;;;;;;;5.07;2.55;;;3.90;76.20;;;;;;2063611;28;20026;-87
2022/02/28 01:12:14;;;;;;;4.72;2.50;;;3.80;76.20;;;;;;2069945;28;20053;-88
2022/02/28 01:13:16;;;;;;;5.70;2.70;;;3.80;76.20;;;;;;2064063;28;20038;-88
2022/02/28 01:14:16;;;;;;;4.93;2.45;;;3.80;76.30;;;;;;2063930;28;20046;-88
2022/02/28 01:15:19;;;;;;;5.13;2.50;;;3.90;76.40;;;;;;2069175;28;20120;-87
2022/02/28 01:16:20;;;;;;;4.53;2.20;;;3.80;76.30;;;;;;2048528;28;20039;-88
2022/02/28 01:17:21;;;;;;;5.50;2.47;;;3.80;76.40;;;;;;2050521;28;20058;-88
2022/02/28 01:18:22;;;;;;;4.35;2.42;;;3.80;76.40;;;;;;2040627;28;20094;-88
2022/02/28 01:19:22;;;;;;;5.22;2.55;;;3.80;76.40;;;;;;2055772;28;20447;-88
2022/02/28 01:20:23;;;;;;;4.10;2.42;;;3.80;76.40;;;;;;2064531;28;20117;-88
2022/02/28 01:21:23;;;;;;;3.67;2.00;;;3.80;76.50;;;;;;2069650;28;20039;-88
2022/02/28 01:22:25;;;;;;;3.97;1.80;;;3.80;76.60;;;;;;2049336;28;20190;-88
2022/02/28 01:23:25;;;;;;;4.47;2.08;;;3.80;76.60;;;;;;2097413;28;20457;-88
2022/02/28 01:24:26;;;;;;;3.92;2.53;;;3.80;76.70;;;;;;2062883;28;20111;-88
2022/02/28 01:25:27;;;;;;;5.20;2.17;;;3.80;76.70;;;;;;2062213;28;20039;-88
2022/02/28 01:26:28;;;;;;;4.18;2.30;;;3.80;76.70;;;;;;2064607;28;20034;-88
2022/02/28 01:27:29;;;;;;;7.15;2.97;;;3.80;76.60;;;;;;2046756;28;20051;-88
2022/02/28 01:28:29;;;;;;;5.65;2.85;;;3.80;76.60;;;;;;2047477;28;20118;-86
2022/02/28 01:29:30;;;;;;;5.57;2.25;;;3.80;76.60;;;;;;2061363;28;20067;-87
2022/02/28 01:30:31;;;;;;;4.35;2.30;;;3.80;76.60;;;;;;2056113;28;20073;-88
2022/02/28 01:31:31;;;;;;;4.07;2.13;;;3.70;76.60;;;;;;2083487;28;20039;-88
2022/02/28 01:32:32;;;;;;;4.68;2.25;;;3.70;77.30;;;;;;2085151;28;20035;-87
2022/02/28 01:33:33;;;;;;;3.97;2.00;;;3.70;76.70;;;;;;2087973;28;20070;-88
2022/02/28 01:34:34;;;;;;;4.82;2.30;;;3.70;76.70;;;;;;2055797;28;20134;-88
2022/02/28 01:35:34;;;;;;;4.65;2.20;;;3.70;76.70;;;;;;2054027;28;20037;-88
2022/02/28 01:36:35;;;;;;;5.32;2.78;;;3.70;76.70;;;;;;2054743;28;20080;-88
2022/02/28 01:37:37;;;;;;;4.53;2.50;;;3.70;76.80;;;;;;2062324;28;20143;-88
2022/02/28 01:38:37;;;;;;;5.90;2.47;;;3.70;76.70;;;;;;2048436;28;20051;-88
2022/02/28 01:39:40;;;;;;;4.32;2.40;;;3.70;76.70;;;;;;2047164;28;20666;-88
2022/02/28 01:40:41;;;;;;;6.65;3.10;;;3.70;76.80;;;;;;2056486;28;20031;-88
2022/02/28 01:41:42;;;;;;;4.25;2.20;;;3.70;76.80;;;;;;2056117;28;20118;-88
2022/02/28 01:42:43;;;;;;;7.32;2.83;;;3.60;76.80;;;;;;2046461;28;20039;-87
2022/02/28 01:43:44;;;;;;;5.78;2.60;;;3.70;76.90;;;;;;2092071;28;20075;-88
2022/02/28 01:44:45;;;;;;;4.65;2.55;;;3.70;76.90;;;;;;2071053;28;20061;-88
2022/02/28 01:45:46;;;;;;;5.68;2.35;;;3.60;76.80;;;;;;2056887;28;20047;-88
2022/02/28 01:46:46;;;;;;;6.05;2.63;;;3.60;77.50;;;;;;2050153;28;20044;-88
2022/02/28 01:47:47;;;;;;;5.53;2.75;;;3.60;76.90;;;;;;2063215;28;20221;-88
2022/02/28 01:48:48;;;;;;;4.38;2.38;;;3.70;77.00;;;;;;2076922;28;20033;-88
2022/02/28 01:49:49;;;;;;;5.10;2.70;;;3.60;77.00;;;;;;2097988;28;20123;-88
2022/02/28 01:50:49;;;;;;;5.00;2.70;;;3.60;77.00;;;;;;2063814;28;20056;-88
2022/02/28 01:51:50;;;;;;;4.60;2.60;;;3.60;77.00;;;;;;2064839;28;20042;-87
2022/02/28 01:52:51;;;;;;;5.95;2.80;;;3.60;77.10;;;;;;2064894;28;20046;-88
2022/02/28 01:53:52;;;;;;;5.78;3.03;;;3.60;77.00;;;;;;2093583;28;20126;-88
2022/02/28 01:54:52;;;;;;;5.43;2.72;;;3.60;77.10;;;;;;2086134;28;20037;-88
2022/02/28 01:55:53;;;;;;;7.00;2.70;;;3.60;77.10;;;;;;2060522;28;20146;-88
2022/02/28 01:56:54;;;;;;;6.03;2.70;;;3.60;77.10;;;;;;2065783;28;20067;-88
2022/02/28 01:57:55;;;;;;;5.85;2.40;;;3.50;77.10;;;;;;2083232;28;20040;-88
2022/02/28 01:58:56;;;;;;;5.75;2.75;;;3.50;77.10;;;;;;2063141;28;20516;-88
2022/02/28 01:59:56;;;;;;;5.45;2.70;;;3.50;77.10;;;;;;2064600;28;20045;-88
2022/02/28 02:00:57;;;;;;;5.13;2.50;;;3.50;77.10;;;;;;2086441;28;20040;-87
2022/02/28 02:01:57;;;;;;;5.80;2.75;;;3.50;77.10;;;;;;2083295;28;20040;-88
2022/02/28 02:02:58;;;;;;;5.65;2.42;;;3.50;77.20;;;;;;2074538;28;20067;-88
2022/02/28 02:03:59;;;;;;;5.22;2.65;;;3.50;77.20;;;;;;2081339;28;20064;-88
2022/02/28 02:04:59;;;;;;;6.38;2.60;;;3.50;77.20;;;;;;2061360;28;20039;-88
2022/02/28 02:06:00;;;;;;;5.20;2.67;;;3.50;77.20;;;;;;2053671;28;20039;-88
2022/02/28 02:07:01;;;;;;;4.97;2.72;;;3.50;77.80;;;;;;2055399;28;20031;-87
2022/02/28 02:08:07;;;;;;;5.05;2.65;;;3.50;77.20;;;;;;2063126;28;20039;-88
2022/02/28 02:09:08;;;;;;;4.80;2.55;;;3.50;77.20;;;;;;2094592;28;20036;-88
2022/02/28 02:10:11;;;;;;;4.45;2.55;;;3.50;77.30;;;;;;2056180;28;20100;-88
2022/02/28 02:11:12;;;;;;;5.45;2.65;;;3.40;77.20;;;;;;2062088;28;20095;-88
2022/02/28 02:12:13;;;;;;;4.80;2.20;;;3.50;78.00;;;;;;2055727;28;20039;-88
2022/02/28 02:13:14;;;;;;;4.43;2.55;;;3.50;77.40;;;;;;2055429;28;20058;-88
2022/02/28 02:14:15;;;;;;;5.38;2.53;;;3.50;77.40;;;;;;2047683;28;20055;-88
2022/02/28 02:15:16;;;;;;;4.55;2.55;;;3.40;77.30;;;;;;2077053;28;20042;-87
2022/02/28 02:16:17;;;;;;;4.90;2.25;;;3.40;77.40;;;;;;2062052;28;20100;-87
2022/02/28 02:17:18;;;;;;;4.13;2.50;;;3.40;77.40;;;;;;2072729;28;20066;-88
2022/02/28 02:18:19;;;;;;;4.72;2.75;;;3.50;77.50;;;;;;2079432;28;20041;-88
2022/02/28 02:19:19;;;;;;;4.95;2.50;;;3.40;77.50;;;;;;2093835;28;20067;-88
2022/02/28 02:20:20;;;;;;;5.32;2.25;;;3.40;77.60;;;;;;2066429;28;20503;-88
2022/02/28 02:21:21;;;;;;;5.85;2.80;;;3.40;77.60;;;;;;2055803;28;20043;-88
2022/02/28 02:22:23;;;;;;;5.18;2.40;;;3.40;77.70;;;;;;2060544;28;20381;-88
2022/02/28 02:23:27;;;;;;;5.07;2.33;;;3.40;78.40;;;;;;2052450;28;20130;-88
2022/02/28 02:24:28;;;;;;;4.18;2.17;;;3.40;77.80;;;;;;2049098;28;20066;-88
2022/02/28 02:25:28;;;;;;;4.15;2.22;;;3.40;77.80;;;;;;2051998;28;20051;-88
2022/02/28 02:26:29;;;;;;;4.80;2.38;;;3.40;77.80;;;;;;2094281;28;20728;-88
2022/02/28 02:27:30;;;;;;;4.05;2.13;;;3.40;77.80;;;;;;2090075;28;20092;-87
2022/02/28 02:28:30;;;;;;;5.63;2.50;;;3.30;77.80;;;;;;2068985;28;20043;-88
2022/02/28 02:29:38;;;;;;;4.97;2.42;;;3.40;77.90;;;;;;2057865;28;20059;-88
2022/02/28 02:30:38;;;;;;;5.43;2.50;;;3.40;77.90;;;;;;2086749;28;20072;-88
2022/02/28 02:31:39;;;;;;;3.97;2.17;;;3.30;77.80;;;;;;2065751;28;20461;-88
2022/02/28 02:32:41;;;;;;;3.88;2.17;;;3.30;77.90;;;;;;2087096;28;20581;-88
2022/02/28 02:33:43;;;;;;;5.22;2.47;;;3.30;77.90;;;;;;2054861;28;20080;-88
2022/02/28 02:34:45;;;;;;;5.72;2.58;;;3.30;77.90;;;;;;2063726;28;20050;-88
2022/02/28 02:35:59;;;;;;;5.68;2.33;;;3.30;77.90;;;;;;2062157;28;20077;-88
2022/02/28 02:37:00;;;;;;;5.63;2.70;;;3.30;77.90;;;;;;2070773;28;20411;-88
2022/02/28 02:38:00;;;;;;;6.78;2.70;;;3.30;77.90;;;;;;2077931;28;20050;-88
2022/02/28 02:39:01;;;;;;;5.40;2.63;;;3.30;77.90;;;;;;2063218;28;20035;-88
2022/02/28 02:40:01;;;;;;;5.25;2.40;;;3.30;78.00;;;;;;2045510;28;20118;-89
2022/02/28 02:41:04;;;;;;;5.18;2.47;;;3.30;78.00;;;;;;2059723;28;20039;-87
2022/02/28 02:42:05;;;;;;;4.88;2.45;;;3.30;78.10;;;;;;2069795;28;20060;-87
2022/02/28 02:43:05;;;;;;;4.82;2.60;;;3.20;78.00;;;;;;2060280;28;20046;-88
2022/02/28 02:44:06;;;;;;;5.53;2.83;;;3.20;78.00;;;;;;2051180;28;20381;-88
2022/02/28 02:45:08;;;;;;;5.53;2.50;;;3.20;78.00;;;;;;2062681;28;20034;-88
2022/02/28 02:46:08;;;;;;;5.45;2.80;;;3.20;78.00;;;;;;2062763;28;20488;-88
2022/02/28 02:47:09;;;;;;;5.20;2.50;;;3.20;78.10;;;;;;2064524;28;20034;-87
2022/02/28 02:48:21;;;;;;;4.80;2.78;;;3.20;78.10;;;;;;2055640;28;20077;-88
2022/02/28 02:49:22;;;;;;;4.97;2.85;;;3.20;78.20;;;;;;2056607;28;20084;-88
2022/02/28 02:50:22;;;;;;;4.97;2.60;;;3.20;78.20;;;;;;2063665;28;20450;-88
2022/02/28 02:51:23;;;;;;;5.15;2.58;;;3.20;78.20;;;;;;2063850;28;20039;-88
2022/02/28 02:52:23;;;;;;;4.90;2.40;;;3.20;78.20;;;;;;2063336;28;20125;-87
2022/02/28 02:53:24;;;;;;;5.72;2.70;;;3.10;78.20;;;;;;2059512;28;20042;-88
2022/02/28 02:54:25;;;;;;;6.90;2.80;;;3.10;78.20;;;;;;2058952;28;20050;-87
2022/02/28 02:55:25;;;;;;;5.25;2.72;;;3.10;78.30;;;;;;2057069;28;20130;-88
2022/02/28 02:56:26;;;;;;;5.45;2.47;;;3.10;78.30;;;;;;2087934;28;20594;-88
2022/02/28 02:57:26;;;;;;;6.43;2.72;;;3.10;78.30;;;;;;2058221;28;20039;-88
2022/02/28 02:58:27;;;;;;;4.53;2.70;;;3.10;78.30;;;;;;2060811;28;20532;-87
2022/02/28 02:59:28;;;;;;;4.55;2.80;;;3.10;78.30;;;;;;2056268;28;20074;-88
2022/02/28 03:00:29;;;;;;;5.93;2.75;;;3.10;78.30;;;;;;2057361;28;20034;-88
2022/02/28 03:01:30;;;;;;;5.00;2.70;;;3.10;78.40;;;;;;2064246;28;20030;-88
2022/02/28 03:02:32;;;;;;;5.55;2.97;;;3.10;78.40;;;;;;2062313;28;20034;-88
2022/02/28 03:03:34;;;;;;;5.55;2.90;;;3.10;78.40;;;;;;2062061;28;20550;-88
2022/02/28 03:04:35;;;;;;;5.47;2.97;;;3.00;78.40;;;;;;2061377;28;20035;-87
2022/02/28 03:05:36;;;;;;;5.13;2.60;;;3.00;78.40;;;;;;2062639;28;20035;-88
2022/02/28 03:06:37;;;;;;;5.05;2.70;;;3.00;78.40;;;;;;2057380;28;20088;-88
2022/02/28 03:07:37;;;;;;;4.50;2.63;;;3.00;78.50;;;;;;2098317;28;20098;-88
2022/02/28 03:08:38;;;;;;;4.65;2.50;;;3.00;78.50;;;;;;2090281;28;20553;-88
2022/02/28 03:09:38;;;;;;;5.25;2.63;;;3.00;78.50;;;;;;2047714;28;20042;-88
2022/02/28 03:10:39;;;;;;;5.32;2.53;;;3.00;78.50;;;;;;2055539;28;20077;-88
2022/02/28 03:11:41;;;;;;;4.82;2.45;;;3.00;78.60;;;;;;2055581;28;20516;-88
2022/02/28 03:12:43;;;;;;;4.50;2.75;;;3.00;78.60;;;;;;2055863;28;20041;-88
2022/02/28 03:13:44;;;;;;;5.53;2.50;;;3.00;78.70;;;;;;2080863;28;20492;-87
2022/02/28 03:14:45;;;;;;;4.10;2.15;;;3.00;78.70;;;;;;2063341;28;20036;-88
2022/02/28 03:15:46;;;;;;;4.45;2.25;;;3.00;78.70;;;;;;2075577;28;20041;-88
2022/02/28 03:16:46;;;;;;;4.40;2.60;;;3.00;78.70;;;;;;2047279;28;20106;-88
2022/02/28 03:17:47;;;;;;;3.45;2.17;;;2.90;78.70;;;;;;2087490;28;20540;-87
2022/02/28 03:18:48;;;;;;;4.05;2.05;;;2.90;78.80;;;;;;2088090;28;20156;-88
2022/02/28 03:19:48;;;;;;;4.20;2.30;;;2.90;78.80;;;;;;2084613;28;20044;-88
2022/02/28 03:20:49;;;;;;;4.40;2.45;;;2.90;78.80;;;;;;2092152;28;20058;-89
2022/02/28 03:21:50;;;;;;;4.65;2.40;;;2.90;78.90;;;;;;2087956;28;20029;-88
2022/02/28 03:22:50;;;;;;;3.75;2.17;;;2.90;78.90;;;;;;2087704;28;20468;-88
2022/02/28 03:23:51;;;;;;;4.85;2.50;;;2.90;78.90;;;;;;2095805;28;20448;-88
2022/02/28 03:24:52;;;;;;;4.82;2.78;;;2.90;78.90;;;;;;2095609;28;20095;-87
2022/02/28 03:25:56;;;;;;;4.78;2.58;;;2.90;79.00;;;;;;2088616;28;20123;-88
2022/02/28 03:26:57;;;;;;;4.22;2.17;;;2.90;79.00;;;;;;2088027;28;20429;-88
2022/02/28 03:27:58;;;;;;;3.80;2.28;;;2.90;79.00;;;;;;2096778;28;20040;-88
2022/02/28 03:28:59;;;;;;;4.63;2.35;;;2.90;79.00;;;;;;2098060;28;20032;-88
2022/02/28 03:29:59;;;;;;;4.32;2.40;;;2.90;78.90;;;;;;2079856;28;20084;-88
2022/02/28 03:31:00;;;;;;;5.10;2.70;;;2.90;79.00;;;;;;2072042;28;20091;-88
2022/02/28 03:32:01;;;;;;;4.15;2.40;;;2.90;79.10;;;;;;2080907;28;20455;-87
2022/02/28 03:33:01;;;;;;;4.55;2.50;;;2.90;79.10;;;;;;2090932;28;20033;-88
2022/02/28 03:34:02;;;;;;;4.03;2.15;;;2.90;79.20;;;;;;2090979;28;20528;-88
2022/02/28 03:35:04;;;;;;;3.90;2.47;;;2.90;79.20;;;;;;2090525;28;20063;-88
2022/02/28 03:36:05;;;;;;;5.05;2.45;;;2.90;79.30;;;;;;2089824;28;20041;-87
2022/02/28 03:37:05;;;;;;;5.00;2.55;;;2.90;79.30;;;;;;2089531;28;20044;-88
2022/02/28 03:38:07;;;;;;;4.28;2.15;;;2.80;79.30;;;;;;2090744;28;20036;-88
2022/02/28 03:39:07;;;;;;;4.60;2.33;;;2.90;79.30;;;;;;2088340;28;20172;-88
2022/02/28 03:40:10;;;;;;;4.55;2.38;;;2.90;79.30;;;;;;2089633;28;20033;-88
2022/02/28 03:41:10;;;;;;;4.60;2.33;;;2.90;79.40;;;;;;2090717;28;20136;-87
2022/02/28 03:42:11;;;;;;;4.28;1.92;;;2.80;79.30;;;;;;2089107;28;20041;-87
2022/02/28 03:43:12;;;;;;;4.55;2.30;;;2.90;79.40;;;;;;2089770;28;20091;-87
2022/02/28 03:44:13;;;;;;;5.18;2.50;;;2.80;79.40;;;;;;2098527;28;20501;-88
2022/02/28 03:45:13;;;;;;;4.07;2.35;;;2.80;79.40;;;;;;2099289;28;20044;-87
2022/02/28 03:46:14;;;;;;;4.63;2.40;;;2.80;79.40;;;;;;2089991;28;20418;-88
2022/02/28 03:47:15;;;;;;;3.92;2.30;;;2.80;79.40;;;;;;2089356;28;20094;-88
2022/02/28 03:48:15;;;;;;;4.38;2.30;;;2.80;79.40;;;;;;2090439;28;20186;-88
2022/02/28 03:49:17;;;;;;;4.53;2.50;;;2.80;79.50;;;;;;2082469;28;20159;-88
2022/02/28 03:50:18;;;;;;;4.97;2.35;;;2.80;79.50;;;;;;2082551;28;20036;-88
2022/02/28 03:51:20;;;;;;;4.43;2.42;;;2.80;79.50;;;;;;2099306;28;20037;-88
2022/02/28 03:52:20;;;;;;;5.05;2.58;;;2.80;79.50;;;;;;2099284;28;21099;-88
2022/02/28 03:53:21;;;;;;;4.82;2.65;;;2.70;79.40;;;;;;2098992;28;20515;-88
2022/02/28 03:54:22;;;;;;;5.05;2.20;;;2.80;79.60;;;;;;2091837;28;20059;-88
2022/02/28 03:55:22;;;;;;;4.25;2.30;;;2.70;79.50;;;;;;2098523;28;20029;-88
2022/02/28 03:56:23;;;;;;;4.43;2.13;;;2.80;79.60;;;;;;2088976;28;20045;-88
2022/02/28 03:57:23;;;;;;;5.10;2.40;;;2.70;79.60;;;;;;2077009;28;20038;-88
2022/02/28 03:58:25;;;;;;;4.93;2.47;;;2.70;79.60;;;;;;2077357;28;20041;-87
2022/02/28 03:59:25;;;;;;;4.45;2.50;;;2.70;79.70;;;;;;2089133;28;20033;-88
2022/02/28 04:00:26;;;;;;;4.57;2.38;;;2.70;79.70;;;;;;2082393;28;20231;-88
2022/02/28 04:01:27;;;;;;;4.65;2.47;;;2.80;79.70;;;;;;2089856;28;20090;-88
2022/02/28 04:02:27;;;;;;;3.90;2.30;;;2.70;79.80;;;;;;2091734;28;20045;-89
2022/02/28 04:03:28;;;;;;;3.50;1.92;;;2.70;79.80;;;;;;2090778;28;20243;-89
2022/02/28 04:04:28;;;;;;;4.32;2.20;;;2.70;79.80;;;;;;2094865;28;20045;-88
2022/02/28 04:05:29;;;;;;;5.80;2.20;;;2.70;79.90;;;;;;2091766;28;20051;-88
2022/02/28 04:06:31;;;;;;;5.53;2.35;;;2.70;79.90;;;;;;2095354;28;20037;-88
2022/02/28 04:07:32;;;;;;;4.47;2.33;;;2.70;79.90;;;;;;2097971;28;20068;-87
2022/02/28 04:08:33;;;;;;;3.95;2.10;;;2.70;80.00;;;;;;2095424;28;20122;-88
2022/02/28 04:09:34;;;;;;;5.00;2.35;;;2.70;80.00;;;;;;2087134;28;20400;-88
2022/02/28 04:10:35;;;;;;;4.63;2.40;;;2.70;80.10;;;;;;2089311;28;20037;-88
2022/02/28 04:11:36;;;;;;;4.15;2.17;;;2.70;80.10;;;;;;2089418;28;20452;-88
2022/02/28 04:12:36;;;;;;;4.22;2.15;;;2.70;80.20;;;;;;2090039;28;20487;-88
2022/02/28 04:13:37;;;;;;;4.55;2.38;;;2.70;80.30;;;;;;2090546;28;20033;-88
2022/02/28 04:14:38;;;;;;;3.67;2.10;;;2.70;80.30;;;;;;2089528;28;20132;-88
2022/02/28 04:15:39;;;;;;;5.15;2.20;;;2.70;80.30;;;;;;2090639;28;20124;-88
2022/02/28 04:16:40;;;;;;;4.05;2.22;;;2.70;80.40;;;;;;2081448;28;20041;-88
2022/02/28 04:17:40;;;;;;;4.20;2.38;;;2.70;80.40;;;;;;2061456;28;20076;-88
2022/02/28 04:18:42;;;;;;;3.67;2.00;;;2.70;80.40;;;;;;2052249;28;20050;-88
2022/02/28 04:19:43;;;;;;;3.78;2.25;;;2.70;80.40;;;;;;2089031;28;20449;-87
2022/02/28 04:20:44;;;;;;;4.22;2.22;;;2.70;80.40;;;;;;2083453;28;20035;-88
2022/02/28 04:21:44;;;;;;;4.93;2.40;;;2.60;80.40;;;;;;2065331;28;20034;-88
2022/02/28 04:22:45;;;;;;;5.07;2.33;;;2.60;80.50;;;;;;2065362;28;20038;-89
2022/02/28 04:23:46;;;;;;;3.95;2.20;;;2.60;80.50;;;;;;2063409;28;20074;-89
2022/02/28 04:24:46;;;;;;;4.80;2.60;;;2.60;80.50;;;;;;2056883;28;20455;-88
2022/02/28 04:25:47;;;;;;;4.70;2.30;;;2.60;80.40;;;;;;2049644;28;20105;-88
2022/02/28 04:26:48;;;;;;;5.10;2.38;;;2.60;80.40;;;;;;2055077;28;20101;-88
2022/02/28 04:27:48;;;;;;;5.53;2.67;;;2.60;80.50;;;;;;2063685;28;20125;-88
2022/02/28 04:28:49;;;;;;;5.43;2.30;;;2.60;80.40;;;;;;2064076;28;20038;-88
2022/02/28 04:29:49;;;;;;;4.80;2.50;;;2.60;80.40;;;;;;2064404;28;20045;-88
2022/02/28 04:30:50;;;;;;;4.97;2.60;;;2.60;80.50;;;;;;2057464;28;20043;-89
2022/02/28 04:31:51;;;;;;;4.50;2.50;;;2.60;80.50;;;;;;2090382;28;20090;-88
2022/02/28 04:32:51;;;;;;;4.90;2.80;;;2.60;80.40;;;;;;2087817;28;20422;-88
2022/02/28 04:33:52;;;;;;;4.70;2.67;;;2.60;80.50;;;;;;2098665;28;20083;-89
2022/02/28 04:34:52;;;;;;;5.03;2.78;;;2.60;80.40;;;;;;2069308;28;20428;-88
2022/02/28 04:35:53;;;;;;;5.88;2.80;;;2.60;80.50;;;;;;2077554;28;20068;-88
2022/02/28 04:36:54;;;;;;;4.95;2.40;;;2.50;80.40;;;;;;2065728;28;20082;-88
2022/02/28 04:37:55;;;;;;;5.43;2.70;;;2.60;80.50;;;;;;2040796;29;20039;-88
2022/02/28 04:38:57;;;;;;;5.57;2.70;;;2.50;80.50;;;;;;2061577;28;20039;-88
2022/02/28 04:39:58;;;;;;;4.88;2.50;;;2.50;80.60;;;;;;2062480;28;20038;-88
2022/02/28 04:40:59;;;;;;;5.53;2.75;;;2.50;80.70;;;;;;2092774;28;20043;-88
2022/02/28 04:41:59;;;;;;;5.45;2.85;;;2.50;80.70;;;;;;2063829;28;20080;-89
2022/02/28 04:43:00;;;;;;;4.70;2.50;;;2.50;80.70;;;;;;2065037;28;20077;-88
2022/02/28 04:44:01;;;;;;;4.95;2.70;;;2.50;80.70;;;;;;2054073;28;20035;-88
2022/02/28 04:45:01;;;;;;;5.00;2.92;;;2.50;80.70;;;;;;2054934;28;20054;-88
2022/02/28 04:46:02;;;;;;;3.85;2.33;;;2.50;80.70;;;;;;2063586;28;20138;-88
2022/02/28 04:47:03;;;;;;;4.90;2.33;;;2.50;80.70;;;;;;2098205;28;20096;-88
2022/02/28 04:48:04;;;;;;;5.65;2.88;;;2.50;80.70;;;;;;2098008;28;20068;-88
2022/02/28 04:49:04;;;;;;;5.25;2.60;;;2.50;80.80;;;;;;2057507;28;20036;-88
2022/02/28 04:50:06;;;;;;;4.60;2.67;;;2.50;80.80;;;;;;2072635;28;20030;-88
2022/02/28 04:51:06;;;;;;;4.72;2.70;;;2.50;80.80;;;;;;2073363;28;20419;-88
2022/02/28 04:52:07;;;;;;;5.00;2.65;;;2.50;80.90;;;;;;2094322;28;20037;-88
2022/02/28 04:53:08;;;;;;;4.90;2.50;;;2.40;80.90;;;;;;2068133;28;20030;-88
2022/02/28 04:54:08;;;;;;;5.75;2.72;;;2.40;81.00;;;;;;2058636;28;20027;-88
2022/02/28 04:55:09;;;;;;;4.28;2.53;;;2.40;81.10;;;;;;2081745;28;20055;-88
2022/02/28 04:56:10;;;;;;;4.50;2.42;;;2.40;81.10;;;;;;2062775;28;20050;-88
2022/02/28 04:57:10;;;;;;;3.95;2.30;;;2.40;81.20;;;;;;2087060;28;20036;-88
2022/02/28 04:58:11;;;;;;;4.20;2.33;;;2.40;81.20;;;;;;2087902;28;20033;-89
2022/02/28 04:59:12;;;;;;;3.70;2.33;;;2.40;81.20;;;;;;2086858;28;20059;-88
2022/02/28 05:00:13;;;;;;;5.85;3.10;;;2.40;81.30;;;;;;2062048;28;20041;-88
2022/02/28 05:01:13;;;;;;;3.78;2.30;;;2.40;81.30;;;;;;2062154;28;20045;-88
2022/02/28 05:02:14;;;;;;;6.70;2.55;;;2.40;81.40;;;;;;2092993;28;20036;-88
2022/02/28 05:03:15;;;;;;;5.10;2.58;;;2.40;81.40;;;;;;2047813;28;20492;-88
2022/02/28 05:04:15;;;;;;;5.32;2.35;;;2.40;81.40;;;;;;2048170;28;20047;-88
2022/02/28 05:05:17;;;;;;;4.78;2.97;;;2.40;81.40;;;;;;2048346;28;20067;-88
2022/02/28 05:06:18;;;;;;;5.45;2.70;;;2.40;81.40;;;;;;2062452;28;20073;-88
2022/02/28 05:07:18;;;;;;;4.90;2.78;;;2.40;81.40;;;;;;2062811;28;20038;-88
2022/02/28 05:08:19;;;;;;;4.65;2.58;;;2.40;81.50;;;;;;2070163;28;20038;-88
2022/02/28 05:09:20;;;;;;;6.18;2.85;;;2.40;81.50;;;;;;2055908;28;20038;-88
2022/02/28 05:10:21;;;;;;;5.50;2.80;;;2.30;81.50;;;;;;2077664;28;20471;-88
2022/02/28 05:11:21;;;;;;;5.93;2.88;;;2.30;81.50;;;;;;2075332;28;20046;-88
2022/02/28 05:12:23;;;;;;;4.68;2.80;;;2.30;81.50;;;;;;2050312;28;20037;-88
2022/02/28 05:13:23;;;;;;;5.32;3.20;;;2.30;81.50;;;;;;2074339;28;20083;-88
2022/02/28 05:14:24;;;;;;;5.72;2.90;;;2.30;81.50;;;;;;2063497;28;20042;-88
2022/02/28 05:15:24;;;;;;;5.50;3.05;;;2.30;81.50;;;;;;2056219;28;20110;-88
2022/02/28 05:16:25;;;;;;;5.40;2.90;;;2.30;81.50;;;;;;2061310;28;20033;-88
2022/02/28 05:17:26;;;;;;;5.05;2.60;;;2.30;81.60;;;;;;2056855;28;20524;-88
2022/02/28 05:18:27;;;;;;;5.72;3.30;;;2.30;81.60;;;;;;2064647;28;20047;-88
2022/02/28 05:19:27;;;;;;;5.75;3.00;;;2.30;81.70;;;;;;2083947;28;20043;-88
2022/02/28 05:20:28;;;;;;;4.68;2.88;;;2.30;81.60;;;;;;2063579;28;20585;-88
2022/02/28 05:21:29;;;;;;;5.43;3.05;;;2.30;81.70;;;;;;2069468;28;20046;-88
2022/02/28 05:22:29;;;;;;;5.63;3.00;;;2.20;81.60;;;;;;2070469;28;20126;-88